createdAt,value
2022-10-17T00:01:34.120Z,5.17
2022-10-17T00:04:00.833Z,6.03
2022-10-17T00:06:27.474Z,5.73
2022-10-17T00:08:54.138Z,5.60
2022-10-17T00:11:23.253Z,4.80
2022-10-17T00:13:53.609Z,5.30
2022-10-17T00:16:29.219Z,5.27
2022-10-17T00:18:56.179Z,5.30
2022-10-17T00:21:23.870Z,5.33
2022-10-17T00:23:51.099Z,4.80
2022-10-17T00:26:18.574Z,5.00
2022-10-17T00:28:50.183Z,5.30
2022-10-17T00:31:18.684Z,6.23
2022-10-17T00:33:45.401Z,5.63
2022-10-17T00:36:18.919Z,5.47
2022-10-17T00:38:47.484Z,6.03
2022-10-17T00:41:18.068Z,5.80
2022-10-17T00:44:00.248Z,6.13
2022-10-17T00:46:33.695Z,6.23
2022-10-17T00:49:05.341Z,7.33
2022-10-17T00:51:41.765Z,5.90
2022-10-17T00:54:10.559Z,6.10
2022-10-17T00:56:38.419Z,6.40
2022-10-17T01:01:32.783Z,5.50
2022-10-17T01:03:59.960Z,6.10
2022-10-17T01:06:26.739Z,6.47
2022-10-17T01:08:53.542Z,6.23
2022-10-17T01:11:33.396Z,6.40
2022-10-17T01:14:31.288Z,6.83
2022-10-17T01:17:02.714Z,7.27
2022-10-17T01:20:12.033Z,6.53
2022-10-17T01:22:51.944Z,6.90
2022-10-17T01:25:24.856Z,6.10
2022-10-17T01:28:10.243Z,6.93
2022-10-17T01:30:51.651Z,6.43
2022-10-17T01:33:28.319Z,6.67
2022-10-17T01:36:01.839Z,8.07
2022-10-17T01:38:57.392Z,6.70
2022-10-17T01:41:26.931Z,7.37
2022-10-17T01:44:03.532Z,6.90
2022-10-17T01:46:43.451Z,7.40
2022-10-17T01:49:13.095Z,6.90
2022-10-17T01:51:48.076Z,7.30
2022-10-17T01:54:27.109Z,6.97
2022-10-17T01:56:59.250Z,7.00
2022-10-17T01:59:31.783Z,6.53
2022-10-17T02:01:59.381Z,6.70
2022-10-17T02:04:26.342Z,7.07
2022-10-17T02:06:53.090Z,7.10
2022-10-17T02:09:23.002Z,7.77
2022-10-17T02:12:12.705Z,7.50
2022-10-17T02:14:42.159Z,6.40
2022-10-17T02:17:21.133Z,8.40
2022-10-17T02:20:15.547Z,6.53
2022-10-17T02:22:52.799Z,7.53
2022-10-17T02:25:31.309Z,6.80
2022-10-17T02:28:20.923Z,7.20
2022-10-17T02:30:53.189Z,7.03
2022-10-17T02:33:51.589Z,8.17
2022-10-17T02:36:27.044Z,7.47
2022-10-17T02:38:55.181Z,6.57
2022-10-17T02:41:23.718Z,6.70
2022-10-17T02:43:53.069Z,6.10
2022-10-17T02:46:23.145Z,6.87
2022-10-17T02:49:27.415Z,6.33
2022-10-17T02:52:15.837Z,6.13
2022-10-17T02:54:59.774Z,7.10
2022-10-17T02:57:54.193Z,6.20
2022-10-17T03:00:22.637Z,6.67
2022-10-17T03:02:51.430Z,6.73
2022-10-17T03:05:21.392Z,5.73
2022-10-17T03:07:48.087Z,5.50
2022-10-17T03:10:14.851Z,5.53
2022-10-17T03:12:41.731Z,5.63
2022-10-17T03:15:09.213Z,5.97
2022-10-17T03:17:37.296Z,6.20
2022-10-17T03:20:05.913Z,5.73
2022-10-17T03:22:33.229Z,5.60
2022-10-17T03:24:59.948Z,5.53
2022-10-17T03:27:26.838Z,5.70
2022-10-17T03:29:53.673Z,5.63
2022-10-17T03:32:20.353Z,5.70
2022-10-17T03:34:47.085Z,6.50
2022-10-17T03:37:13.719Z,6.60
2022-10-17T03:39:40.422Z,6.10
2022-10-17T03:42:07.172Z,6.70
2022-10-17T03:44:33.845Z,5.97
2022-10-17T03:47:00.619Z,6.27
2022-10-17T03:49:27.371Z,6.20
2022-10-17T03:51:54.075Z,6.50
2022-10-17T03:54:20.834Z,6.40
2022-10-17T03:56:47.569Z,5.83
2022-10-17T03:59:15.739Z,5.77
2022-10-17T04:01:43.109Z,6.17
2022-10-17T04:04:10.302Z,5.73
2022-10-17T04:06:37.803Z,6.20
2022-10-17T04:09:06.506Z,5.20
2022-10-17T04:11:33.583Z,6.20
2022-10-17T04:14:00.371Z,6.40
2022-10-17T04:16:27.844Z,6.20
2022-10-17T04:18:56.523Z,5.87
2022-10-17T04:21:24.905Z,6.10
2022-10-17T04:24:00.167Z,5.63
2022-10-17T04:26:27.962Z,5.33
2022-10-17T04:28:54.797Z,5.63
2022-10-17T04:31:21.658Z,6.00
2022-10-17T04:33:49.980Z,5.90
2022-10-17T04:36:19.364Z,5.57
2022-10-17T04:38:46.193Z,5.97
2022-10-17T04:41:16.039Z,5.90
2022-10-17T04:43:45.592Z,5.70
2022-10-17T04:46:15.553Z,5.30
2022-10-17T04:48:42.659Z,6.10
2022-10-17T04:51:13.854Z,5.50
2022-10-17T04:53:42.339Z,5.90
2022-10-17T04:56:14.428Z,5.90
2022-10-17T04:58:42.347Z,7.30
2022-10-17T05:01:20.614Z,6.10
2022-10-17T05:03:47.653Z,7.20
2022-10-17T05:06:16.896Z,6.50
2022-10-17T05:08:44.257Z,7.40
2022-10-17T05:11:23.025Z,6.03
2022-10-17T05:13:51.977Z,6.50
2022-10-17T05:16:18.769Z,6.40
2022-10-17T05:18:52.718Z,6.40
2022-10-17T05:21:21.380Z,7.10
2022-10-17T05:23:48.416Z,6.50
2022-10-17T05:26:15.453Z,7.00
2022-10-17T05:28:42.171Z,6.60
2022-10-17T05:31:10.582Z,6.53
2022-10-17T05:33:38.371Z,6.37
2022-10-17T05:36:06.109Z,7.40
2022-10-17T05:38:32.890Z,5.80
2022-10-17T05:41:01.067Z,7.07
2022-10-17T05:43:28.476Z,6.40
2022-10-17T05:45:55.713Z,6.40
2022-10-17T05:48:23.723Z,6.30
2022-10-17T05:50:50.474Z,6.53
2022-10-17T05:53:17.342Z,6.03
2022-10-17T05:55:44.098Z,6.57
2022-10-17T05:58:17.783Z,6.20
2022-10-17T06:00:49.020Z,5.70
2022-10-17T06:03:15.753Z,6.77
2022-10-17T06:05:42.449Z,5.50
2022-10-17T06:08:09.250Z,5.30
2022-10-17T06:10:35.969Z,6.03
2022-10-17T06:13:02.700Z,6.20
2022-10-17T06:15:29.459Z,5.37
2022-10-17T06:17:56.155Z,5.53
2022-10-17T06:20:22.878Z,7.20
2022-10-17T06:22:49.636Z,5.97
2022-10-17T06:25:16.379Z,6.10
2022-10-17T06:27:43.170Z,5.77
2022-10-17T06:30:10.224Z,5.57
2022-10-17T06:32:36.877Z,6.10
2022-10-17T06:35:03.956Z,6.10
2022-10-17T06:37:36.583Z,6.80
2022-10-17T06:40:04.629Z,5.57
2022-10-17T06:42:31.280Z,6.27
2022-10-17T06:44:58.022Z,7.00
2022-10-17T06:47:24.776Z,5.60
2022-10-17T06:49:51.446Z,6.23
2022-10-17T06:52:18.344Z,5.70
2022-10-17T06:54:46.292Z,5.70
2022-10-17T06:57:12.982Z,6.37
2022-10-17T06:59:39.670Z,5.80
2022-10-17T07:02:06.865Z,6.27
2022-10-17T07:04:33.583Z,6.03
2022-10-17T07:07:03.163Z,6.53
2022-10-17T07:09:33.264Z,6.00
2022-10-17T07:12:00.297Z,5.73
2022-10-17T07:14:32.103Z,6.40
2022-10-17T07:16:59.674Z,6.30
2022-10-17T07:19:27.135Z,6.40
2022-10-17T07:21:54.581Z,6.40
2022-10-17T07:24:21.386Z,5.90
2022-10-17T07:26:48.233Z,5.80
2022-10-17T07:29:15.200Z,6.00
2022-10-17T07:31:41.962Z,6.17
2022-10-17T07:34:08.715Z,6.17
2022-10-17T07:36:35.439Z,5.90
2022-10-17T07:39:03.186Z,4.30
2022-10-17T07:41:29.875Z,5.30
2022-10-17T07:43:56.535Z,5.47
2022-10-17T07:46:23.957Z,5.30
2022-10-17T07:48:51.133Z,4.97
2022-10-17T07:51:19.992Z,3.67
2022-10-17T07:53:48.816Z,4.93
2022-10-17T07:56:16.398Z,4.90
2022-10-17T07:58:43.158Z,4.60
2022-10-17T08:01:15.444Z,3.93
2022-10-17T08:03:44.569Z,3.57
2022-10-17T08:06:11.711Z,3.70
2022-10-17T08:08:38.549Z,3.07
2022-10-17T08:11:07.727Z,3.63
2022-10-17T08:13:35.153Z,3.70
2022-10-17T08:16:07.930Z,3.03
2022-10-17T08:18:36.285Z,3.43
2022-10-17T08:21:06.312Z,3.70
2022-10-17T08:23:33.132Z,3.90
2022-10-17T08:26:01.486Z,4.20
2022-10-17T08:28:29.041Z,3.20
2022-10-17T08:31:07.003Z,3.57
2022-10-17T08:33:33.764Z,3.60
2022-10-17T08:36:01.409Z,3.47
2022-10-17T08:38:35.105Z,2.80
2022-10-17T08:41:05.375Z,3.00
2022-10-17T08:43:52.083Z,3.33
2022-10-17T08:46:19.752Z,3.77
2022-10-17T08:48:48.082Z,3.20
2022-10-17T08:51:25.832Z,3.30
2022-10-17T08:54:12.975Z,3.30
2022-10-17T08:57:00.062Z,3.73
2022-10-17T08:59:30.343Z,4.33
2022-10-17T09:02:11.633Z,3.07
2022-10-17T09:04:44.242Z,3.23
2022-10-17T09:07:34.540Z,2.83
2022-10-17T09:10:15.611Z,3.10
2022-10-17T09:12:55.017Z,2.53
2022-10-17T09:16:11.353Z,3.27
2022-10-17T09:18:41.653Z,3.13
2022-10-17T09:21:27.484Z,2.40
2022-10-17T09:24:08.972Z,2.70
2022-10-17T09:26:36.630Z,3.30
2022-10-17T09:29:11.620Z,2.73
2022-10-17T09:34:31.552Z,3.83
2022-10-17T09:36:59.842Z,2.67
2022-10-17T09:39:31.819Z,2.70
2022-10-17T09:42:00.892Z,2.80
2022-10-17T09:44:35.927Z,3.00
2022-10-17T09:47:14.986Z,3.23
2022-10-17T09:49:44.268Z,2.77
2022-10-17T09:52:36.398Z,2.80
2022-10-17T09:55:05.425Z,2.53
2022-10-17T09:57:56.953Z,2.57
2022-10-17T10:00:33.578Z,3.00
2022-10-17T10:03:23.868Z,2.60
2022-10-17T10:06:18.034Z,3.30
2022-10-17T10:08:58.742Z,3.33
2022-10-17T10:11:57.523Z,3.77
2022-10-17T10:14:33.978Z,2.50
2022-10-17T10:17:02.486Z,2.97
2022-10-17T10:19:30.991Z,2.60
2022-10-17T10:22:03.459Z,3.03
2022-10-17T10:24:31.359Z,3.30
2022-10-17T10:27:02.035Z,2.87
2022-10-17T10:29:36.682Z,3.40
2022-10-17T10:32:29.958Z,3.90
2022-10-17T10:35:08.539Z,2.93
2022-10-17T10:37:39.765Z,2.10
2022-10-17T10:40:15.974Z,2.63
2022-10-17T10:42:42.749Z,2.80
2022-10-17T10:45:42.808Z,3.00
2022-10-17T10:48:16.735Z,2.67
2022-10-17T10:50:57.001Z,2.60
2022-10-17T10:53:35.366Z,2.67
2022-10-17T10:56:14.200Z,2.70
2022-10-17T10:59:09.638Z,3.20
2022-10-17T11:01:39.496Z,3.03
2022-10-17T11:04:21.645Z,2.73
2022-10-17T11:06:52.386Z,3.07
2022-10-17T11:09:43.828Z,2.70
2022-10-17T11:12:10.504Z,2.60
2022-10-17T11:14:49.032Z,2.80
2022-10-17T11:17:32.849Z,2.40
2022-10-17T11:20:09.040Z,3.30
2022-10-17T11:22:41.699Z,3.50
2022-10-17T11:25:25.388Z,2.50
2022-10-17T11:27:52.104Z,2.20
2022-10-17T11:30:19.142Z,2.37
2022-10-17T11:32:59.826Z,2.23
2022-10-17T11:35:28.092Z,2.20
2022-10-17T11:38:35.265Z,2.23
2022-10-17T11:41:04.512Z,2.47
2022-10-17T11:43:36.884Z,2.77
2022-10-17T11:46:30.486Z,2.60
2022-10-17T11:49:06.724Z,2.30
2022-10-17T11:52:02.084Z,1.80
2022-10-17T11:54:38.099Z,2.40
2022-10-17T11:57:24.443Z,2.80
2022-10-17T12:00:03.477Z,2.17
2022-10-17T12:03:15.490Z,2.20
2022-10-17T12:06:27.089Z,2.40
2022-10-17T12:09:03.117Z,2.50
2022-10-17T12:11:54.140Z,2.57
2022-10-17T12:14:47.228Z,2.10
2022-10-17T12:17:28.297Z,1.50
2022-10-17T12:20:21.492Z,2.07
2022-10-17T12:22:49.863Z,1.97
2022-10-17T12:25:23.167Z,1.83
2022-10-17T12:27:51.061Z,1.90
2022-10-17T12:30:27.637Z,1.90
2022-10-17T12:33:12.760Z,1.70
2022-10-17T12:35:39.605Z,1.80
2022-10-17T12:38:15.399Z,2.00
2022-10-17T12:40:46.330Z,1.97
2022-10-17T12:43:17.890Z,1.90
2022-10-17T12:45:54.588Z,1.40
2022-10-17T12:48:41.898Z,2.40
2022-10-17T12:51:34.745Z,1.80
2022-10-17T12:54:10.557Z,1.60
2022-10-17T12:56:47.838Z,1.90
2022-10-17T12:59:28.645Z,1.80
2022-10-17T13:02:01.310Z,1.73
2022-10-17T13:04:29.632Z,1.70
2022-10-17T13:06:58.678Z,1.87
2022-10-17T13:09:30.076Z,2.00
2022-10-17T13:11:59.180Z,1.63
2022-10-17T13:14:26.769Z,1.60
2022-10-17T13:17:05.453Z,1.40
2022-10-17T13:19:42.559Z,2.07
2022-10-17T13:22:19.523Z,2.40
2022-10-17T13:24:46.878Z,2.20
2022-10-17T13:27:32.479Z,2.20
2022-10-17T13:30:01.995Z,2.30
2022-10-17T13:32:39.751Z,2.70
2022-10-17T13:35:15.364Z,1.90
2022-10-17T13:37:44.527Z,2.20
2022-10-17T13:40:44.067Z,2.37
2022-10-17T13:43:21.780Z,2.30
2022-10-17T13:45:51.497Z,2.10
2022-10-17T13:48:27.764Z,1.90
2022-10-17T13:51:02.426Z,2.00
2022-10-17T13:53:39.798Z,2.03
2022-10-17T13:56:28.916Z,2.50
2022-10-17T13:59:00.204Z,1.83
2022-10-17T14:01:29.031Z,2.07
2022-10-17T14:04:09.447Z,1.53
2022-10-17T14:06:49.324Z,2.10
2022-10-17T14:09:46.283Z,2.27
2022-10-17T14:12:13.534Z,1.80
2022-10-17T14:15:09.191Z,1.90
2022-10-17T14:17:34.056Z,2.03
2022-10-17T14:20:34.469Z,1.70
2022-10-17T14:23:17.500Z,2.13
2022-10-17T14:25:40.108Z,1.57
2022-10-17T14:28:13.929Z,2.57
2022-10-17T14:30:58.602Z,1.97
2022-10-17T14:33:29.383Z,2.30
2022-10-17T14:35:59.013Z,2.00
2022-10-17T14:38:27.396Z,2.10
2022-10-17T14:41:09.750Z,2.27
2022-10-17T14:43:53.482Z,2.27
2022-10-17T14:46:20.423Z,2.20
2022-10-17T14:48:53.550Z,2.57
2022-10-17T14:51:20.635Z,2.50
2022-10-17T14:54:22.122Z,2.10
2022-10-17T14:56:53.642Z,2.07
2022-10-17T14:59:51.410Z,1.87
2022-10-17T15:02:11.578Z,1.70
2022-10-17T15:04:38.296Z,2.70
2022-10-17T15:07:05.097Z,3.70
2022-10-17T15:09:31.824Z,2.60
2022-10-17T15:12:02.845Z,2.23
2022-10-17T15:14:29.545Z,2.30
2022-10-17T15:16:56.583Z,2.23
2022-10-17T15:19:23.287Z,2.13
2022-10-17T15:21:49.970Z,2.30
2022-10-17T15:24:16.752Z,2.50
2022-10-17T15:26:43.614Z,2.80
2022-10-17T15:29:15.993Z,2.33
2022-10-17T15:31:42.904Z,2.40
2022-10-17T15:34:09.624Z,2.17
2022-10-17T15:36:41.140Z,2.30
2022-10-17T15:39:09.564Z,2.87
2022-10-17T15:41:36.281Z,2.77
2022-10-17T15:44:02.974Z,2.50
2022-10-17T15:46:33.643Z,2.40
2022-10-17T15:49:12.755Z,2.47
2022-10-17T15:51:42.908Z,2.60
2022-10-17T15:54:09.772Z,2.53
2022-10-17T15:56:40.437Z,2.40
2022-10-17T15:59:19.190Z,2.97
2022-10-17T16:01:45.972Z,3.00
2022-10-17T16:04:15.396Z,3.10
2022-10-17T16:06:42.969Z,2.80
2022-10-17T16:09:10.054Z,3.13
2022-10-17T16:11:39.629Z,2.60
2022-10-17T16:14:18.069Z,2.83
2022-10-17T16:16:44.800Z,2.80
2022-10-17T16:19:11.914Z,3.20
2022-10-17T16:21:40.908Z,3.13
2022-10-17T16:24:11.575Z,3.83
2022-10-17T16:26:39.459Z,3.07
2022-10-17T16:29:06.250Z,3.83
2022-10-17T16:31:35.399Z,3.83
2022-10-17T16:34:04.536Z,3.40
2022-10-17T16:36:31.243Z,3.70
2022-10-17T16:38:58.480Z,3.13
2022-10-17T16:41:27.267Z,3.00
2022-10-17T16:43:55.980Z,4.20
2022-10-17T16:46:24.353Z,3.03
2022-10-17T16:48:51.436Z,2.93
2022-10-17T16:51:20.051Z,3.40
2022-10-17T16:53:50.074Z,3.33
2022-10-17T16:56:19.001Z,4.20
2022-10-17T16:58:46.325Z,3.73
2022-10-17T17:01:16.019Z,3.80
2022-10-17T17:03:44.363Z,3.80
2022-10-17T17:06:27.508Z,4.00
2022-10-17T17:08:55.270Z,3.70
2022-10-17T17:11:24.364Z,4.33
2022-10-17T17:13:51.576Z,4.57
2022-10-17T17:16:23.898Z,3.90
2022-10-17T17:18:55.985Z,4.30
2022-10-17T17:21:22.878Z,4.83
2022-10-17T17:23:49.689Z,4.53
2022-10-17T17:26:19.526Z,4.53
2022-10-17T17:28:47.446Z,5.53
2022-10-17T17:31:17.030Z,4.97
2022-10-17T17:33:46.177Z,6.27
2022-10-17T17:36:17.236Z,5.40
2022-10-17T17:38:44.607Z,5.13
2022-10-17T17:41:16.433Z,5.00
2022-10-17T17:43:45.249Z,6.20
2022-10-17T17:46:12.630Z,5.30
2022-10-17T17:48:41.245Z,5.03
2022-10-17T17:51:09.994Z,6.00
2022-10-17T17:53:37.662Z,5.50
2022-10-17T17:56:07.748Z,6.60
2022-10-17T17:58:35.998Z,6.00
2022-10-17T18:01:11.356Z,5.77
2022-10-17T18:03:40.864Z,5.70
2022-10-17T18:06:08.705Z,6.03
2022-10-17T18:08:36.765Z,5.60
2022-10-17T18:11:04.419Z,5.30
2022-10-17T18:13:33.256Z,5.10
2022-10-17T18:16:01.937Z,6.10
2022-10-17T18:18:30.749Z,5.07
2022-10-17T18:21:01.800Z,5.67
2022-10-17T18:23:29.272Z,6.17
2022-10-17T18:26:02.510Z,6.20
2022-10-17T18:28:30.272Z,5.70
2022-10-17T18:31:01.518Z,5.90
2022-10-17T18:33:28.879Z,5.60
2022-10-17T18:35:58.228Z,6.37
2022-10-17T18:38:25.254Z,6.17
2022-10-17T18:41:09.273Z,5.97
2022-10-17T18:43:37.753Z,5.73
2022-10-17T18:46:12.280Z,5.37
2022-10-17T18:48:44.655Z,5.73
2022-10-17T18:51:13.068Z,5.87
2022-10-17T18:53:41.824Z,5.50
2022-10-17T18:56:09.593Z,6.30
2022-10-17T18:58:40.397Z,6.10
2022-10-17T19:01:15.513Z,6.10
2022-10-17T19:03:44.190Z,6.47
2022-10-17T19:06:12.752Z,5.50
2022-10-17T19:08:40.225Z,6.10
2022-10-17T19:11:14.690Z,6.30
2022-10-17T19:13:42.558Z,6.00
2022-10-17T19:16:33.873Z,6.60
2022-10-17T19:19:04.372Z,6.27
2022-10-17T19:21:31.557Z,5.97
2022-10-17T19:24:00.669Z,6.13
2022-10-17T19:26:30.366Z,5.80
2022-10-17T19:28:57.477Z,7.03
2022-10-17T19:31:27.255Z,7.70
2022-10-17T19:33:55.834Z,7.53
2022-10-17T19:36:27.547Z,7.23
2022-10-17T19:38:58.146Z,7.87
2022-10-17T19:41:25.964Z,8.20
2022-10-17T19:43:53.288Z,9.13
2022-10-17T19:46:22.393Z,8.13
2022-10-17T19:48:50.074Z,8.30
2022-10-17T19:51:20.466Z,8.17
2022-10-17T19:53:48.000Z,7.97
2022-10-17T19:56:18.651Z,8.37
2022-10-17T19:58:47.183Z,8.97
2022-10-17T20:01:16.797Z,8.20
2022-10-17T20:03:44.259Z,8.97
2022-10-17T20:06:11.731Z,8.67
2022-10-17T20:08:40.449Z,8.60
2022-10-17T20:11:19.169Z,8.37
2022-10-17T20:13:48.013Z,8.57
2022-10-17T20:16:21.313Z,8.53
2022-10-17T20:18:53.537Z,8.10
2022-10-17T20:21:24.213Z,9.53
2022-10-17T20:23:51.108Z,8.53
2022-10-17T20:26:38.721Z,9.47
2022-10-17T20:29:18.656Z,8.00
2022-10-17T20:31:46.784Z,8.47
2022-10-17T20:34:15.357Z,8.67
2022-10-17T20:36:42.398Z,8.03
2022-10-17T20:39:11.393Z,8.00
2022-10-17T20:41:38.632Z,8.20
2022-10-17T20:44:07.049Z,8.53
2022-10-17T20:46:37.596Z,9.60
2022-10-17T20:49:07.175Z,8.73
2022-10-17T20:51:34.774Z,8.73
2022-10-17T20:54:02.694Z,9.33
2022-10-17T20:56:31.350Z,8.43
2022-10-17T20:59:11.389Z,8.67
2022-10-17T21:01:38.314Z,8.90
2022-10-17T21:06:53.516Z,8.73
2022-10-17T21:09:21.883Z,8.83
2022-10-17T21:11:51.627Z,10.33
2022-10-17T21:14:18.974Z,9.13
2022-10-17T21:16:45.809Z,9.40
2022-10-17T21:19:13.826Z,8.97
2022-10-17T21:21:42.996Z,10.77
2022-10-17T21:24:14.139Z,10.43
2022-10-17T21:26:42.372Z,9.70
2022-10-17T21:29:10.187Z,9.60
2022-10-17T21:31:38.968Z,10.13
2022-10-17T21:34:08.038Z,9.33
2022-10-17T21:36:35.132Z,10.53
2022-10-17T21:39:02.018Z,9.50
2022-10-17T21:41:30.059Z,9.20
2022-10-17T21:43:59.594Z,9.80
2022-10-17T21:46:27.266Z,9.07
2022-10-17T21:48:54.585Z,10.80
2022-10-17T21:51:23.819Z,10.30
2022-10-17T21:53:56.010Z,9.80
2022-10-17T21:56:25.058Z,10.10
2022-10-17T21:58:51.949Z,9.70
2022-10-17T22:01:24.949Z,9.17
2022-10-17T22:03:54.096Z,9.60
2022-10-17T22:06:39.602Z,9.00
2022-10-17T22:09:18.516Z,8.43
2022-10-17T22:11:48.043Z,8.27
2022-10-17T22:14:17.444Z,8.90
2022-10-17T22:16:45.302Z,9.13
2022-10-17T22:19:13.722Z,8.70
2022-10-17T22:21:40.679Z,9.50
2022-10-17T22:24:10.575Z,9.00
2022-10-17T22:26:38.410Z,9.30
2022-10-17T22:29:07.002Z,8.30
2022-10-17T22:31:34.726Z,8.20
2022-10-17T22:34:01.500Z,8.93
2022-10-17T22:36:28.268Z,8.80
2022-10-17T22:38:54.940Z,8.20
2022-10-17T22:41:22.578Z,8.10
2022-10-17T22:43:49.372Z,7.83
2022-10-17T22:46:16.900Z,8.87
2022-10-17T22:48:43.731Z,8.33
2022-10-17T22:51:10.813Z,8.03
2022-10-17T22:53:37.787Z,7.90
2022-10-17T22:56:11.180Z,8.17
2022-10-17T22:58:38.480Z,9.00
2022-10-17T23:01:06.893Z,8.60
2022-10-17T23:03:34.683Z,8.17
2022-10-17T23:06:02.118Z,8.40
2022-10-17T23:08:29.390Z,7.70
2022-10-17T23:10:56.376Z,7.60
2022-10-17T23:13:23.275Z,8.47
2022-10-17T23:15:54.442Z,7.10
2022-10-17T23:18:22.747Z,7.00
2022-10-17T23:20:49.858Z,8.03
2022-10-17T23:23:16.921Z,8.10
2022-10-17T23:25:43.756Z,7.57
2022-10-17T23:28:11.282Z,6.73
2022-10-17T23:30:39.041Z,7.17
2022-10-17T23:33:06.231Z,7.43
2022-10-17T23:35:35.563Z,7.50
2022-10-17T23:38:02.584Z,7.20
2022-10-17T23:40:29.608Z,7.20
2022-10-17T23:42:56.757Z,6.80
2022-10-17T23:45:23.564Z,7.27
2022-10-17T23:47:50.319Z,9.40
2022-10-17T23:50:17.113Z,7.30
2022-10-17T23:52:43.958Z,7.00
2022-10-17T23:55:11.083Z,7.80
2022-10-17T23:57:37.860Z,6.40
